createdAt,value
2023-03-06T00:02:25.313Z,5.13
2023-03-06T00:04:54.950Z,4.93
2023-03-06T00:07:21.611Z,5.00
2023-03-06T00:09:48.338Z,4.98
2023-03-06T00:12:14.989Z,4.86
2023-03-06T00:14:41.575Z,4.96
2023-03-06T00:17:12.251Z,4.70
2023-03-06T00:19:39.237Z,4.70
2023-03-06T00:22:06.136Z,4.69
2023-03-06T00:24:33.143Z,4.73
2023-03-06T00:26:59.987Z,4.73
2023-03-06T00:29:28.095Z,4.62
2023-03-06T00:32:15.773Z,4.67
2023-03-06T00:34:42.618Z,4.71
2023-03-06T00:37:09.165Z,4.63
2023-03-06T00:39:36.119Z,4.53
2023-03-06T00:42:04.194Z,4.60
2023-03-06T00:44:31.672Z,4.34
2023-03-06T00:47:00.609Z,4.46
2023-03-06T00:49:27.215Z,4.44
2023-03-06T00:51:53.873Z,4.48
2023-03-06T00:54:20.538Z,4.44
2023-03-06T00:56:47.296Z,4.55
2023-03-06T00:59:14.012Z,4.63
2023-03-06T01:01:40.687Z,4.49
2023-03-06T01:04:07.296Z,4.33
2023-03-06T01:06:34.400Z,4.54
2023-03-06T01:09:03.846Z,4.57
2023-03-06T01:11:30.539Z,4.51
2023-03-06T01:13:57.316Z,4.42
2023-03-06T01:16:24.039Z,4.55
2023-03-06T01:18:51.668Z,4.49
2023-03-06T01:21:18.802Z,4.75
2023-03-06T01:23:46.081Z,4.69
2023-03-06T01:26:13.080Z,4.55
2023-03-06T01:28:40.650Z,4.46
2023-03-06T01:31:17.578Z,4.46
2023-03-06T01:33:44.427Z,4.63
2023-03-06T01:36:15.030Z,4.31
2023-03-06T01:38:42.208Z,4.40
2023-03-06T01:41:12.561Z,4.43
2023-03-06T01:43:42.829Z,4.34
2023-03-06T01:46:28.941Z,4.58
2023-03-06T01:48:58.294Z,4.43
2023-03-06T01:51:27.291Z,4.38
2023-03-06T01:53:58.691Z,4.29
2023-03-06T01:56:26.239Z,4.32
2023-03-06T01:59:00.473Z,4.27
2023-03-06T02:01:29.333Z,4.29
2023-03-06T02:03:56.165Z,4.35
2023-03-06T02:06:22.880Z,4.27
2023-03-06T02:08:51.201Z,4.27
2023-03-06T02:11:22.578Z,4.57
2023-03-06T02:13:49.984Z,4.36
2023-03-06T02:16:20.189Z,4.43
2023-03-06T02:18:47.266Z,4.36
2023-03-06T02:21:20.427Z,4.59
2023-03-06T02:23:50.203Z,4.51
2023-03-06T02:26:18.162Z,4.55
2023-03-06T02:28:44.869Z,4.55
2023-03-06T02:31:35.763Z,4.54
2023-03-06T02:34:02.512Z,4.52
2023-03-06T02:36:29.957Z,4.36
2023-03-06T02:38:57.256Z,4.38
2023-03-06T02:41:24.488Z,4.49
2023-03-06T02:43:54.514Z,4.45
2023-03-06T02:46:21.234Z,4.55
2023-03-06T02:48:47.981Z,4.54
2023-03-06T02:51:19.939Z,4.41
2023-03-06T02:53:46.771Z,4.42
2023-03-06T02:56:13.454Z,4.63
2023-03-06T02:58:41.582Z,4.45
2023-03-06T03:01:08.602Z,4.57
2023-03-06T03:03:35.434Z,4.46
2023-03-06T03:06:03.703Z,4.42
2023-03-06T03:08:38.930Z,4.45
2023-03-06T03:11:05.739Z,4.58
2023-03-06T03:13:42.246Z,4.48
2023-03-06T03:16:15.496Z,4.51
2023-03-06T03:18:44.676Z,4.49
2023-03-06T03:21:15.251Z,4.38
2023-03-06T03:23:41.920Z,4.45
2023-03-06T03:26:08.594Z,4.57
2023-03-06T03:28:37.133Z,4.56
2023-03-06T03:31:08.961Z,4.58
2023-03-06T03:33:36.050Z,4.41
2023-03-06T03:36:04.610Z,4.58
2023-03-06T03:38:33.738Z,4.47
2023-03-06T03:41:04.091Z,4.69
2023-03-06T03:43:31.786Z,4.54
2023-03-06T03:45:59.613Z,4.62
2023-03-06T03:48:28.543Z,4.51
2023-03-06T03:51:02.107Z,4.55
2023-03-06T03:53:31.936Z,4.77
2023-03-06T03:55:59.496Z,4.53
2023-03-06T03:58:30.177Z,4.55
2023-03-06T04:00:57.079Z,4.69
2023-03-06T04:03:23.647Z,4.73
2023-03-06T04:05:50.336Z,4.65
2023-03-06T04:08:16.975Z,4.74
2023-03-06T04:10:46.478Z,4.74
2023-03-06T04:13:17.131Z,4.56
2023-03-06T04:15:46.579Z,4.60
2023-03-06T04:18:13.424Z,4.74
2023-03-06T04:20:40.433Z,4.60
2023-03-06T04:23:07.222Z,4.61
2023-03-06T04:25:33.935Z,4.77
2023-03-06T04:28:02.633Z,4.71
2023-03-06T04:30:30.011Z,4.68
2023-03-06T04:32:57.384Z,4.59
2023-03-06T04:35:24.140Z,4.78
2023-03-06T04:38:01.242Z,4.71
2023-03-06T04:40:31.099Z,4.69
2023-03-06T04:42:58.629Z,4.46
2023-03-06T04:45:25.865Z,4.61
2023-03-06T04:47:52.520Z,4.60
2023-03-06T04:50:19.788Z,4.68
2023-03-06T04:52:46.645Z,4.63
2023-03-06T04:55:14.501Z,4.80
2023-03-06T04:57:41.907Z,5.10
2023-03-06T05:00:10.338Z,4.85
2023-03-06T05:02:36.935Z,4.53
2023-03-06T05:05:04.413Z,4.68
2023-03-06T05:07:31.112Z,4.69
2023-03-06T05:09:57.632Z,4.54
2023-03-06T05:12:24.211Z,4.23
2023-03-06T05:14:50.824Z,4.30
2023-03-06T05:17:18.384Z,4.51
2023-03-06T05:19:45.326Z,4.27
2023-03-06T05:22:11.990Z,4.25
2023-03-06T05:24:38.514Z,4.21
2023-03-06T05:27:05.180Z,4.05
2023-03-06T05:29:31.746Z,4.27
2023-03-06T05:32:01.345Z,4.23
2023-03-06T05:34:29.329Z,4.42
2023-03-06T05:36:55.907Z,4.34
2023-03-06T05:39:22.490Z,4.41
2023-03-06T05:41:49.036Z,3.94
2023-03-06T05:44:17.843Z,3.87
2023-03-06T05:46:44.402Z,3.96
2023-03-06T05:49:11.065Z,3.90
2023-03-06T05:51:37.634Z,4.05
2023-03-06T05:54:04.534Z,4.07
2023-03-06T05:56:33.474Z,3.81
2023-03-06T05:59:02.189Z,3.64
2023-03-06T06:01:29.877Z,4.02
2023-03-06T06:03:56.650Z,3.68
2023-03-06T06:06:26.413Z,3.64
2023-03-06T06:08:53.075Z,4.02
2023-03-06T06:11:20.880Z,4.24
2023-03-06T06:13:51.632Z,3.56
2023-03-06T06:16:19.755Z,4.06
2023-03-06T06:18:54.766Z,3.69
2023-03-06T06:21:21.638Z,3.98
2023-03-06T06:23:48.398Z,3.51
2023-03-06T06:26:15.770Z,3.97
2023-03-06T06:28:44.474Z,3.70
2023-03-06T06:31:12.433Z,3.61
2023-03-06T06:33:39.608Z,3.85
2023-03-06T06:36:14.490Z,3.13
2023-03-06T06:38:41.149Z,3.43
2023-03-06T06:43:54.688Z,3.64
2023-03-06T06:47:02.704Z,3.16
2023-03-06T06:49:08.222Z,3.83
2023-03-06T06:51:35.029Z,3.77
2023-03-06T06:54:05.669Z,4.18
2023-03-06T06:56:32.911Z,3.77
2023-03-06T06:59:15.566Z,3.51
2023-03-06T07:01:43.296Z,3.72
2023-03-06T07:04:11.709Z,3.70
2023-03-06T07:06:38.395Z,3.85
2023-03-06T07:09:05.755Z,3.75
2023-03-06T07:11:32.439Z,4.09
2023-03-06T07:13:59.347Z,3.95
2023-03-06T07:16:28.224Z,4.13
2023-03-06T07:18:55.016Z,3.55
2023-03-06T07:21:21.827Z,3.28
2023-03-06T07:23:48.685Z,3.27
2023-03-06T07:26:17.593Z,3.45
2023-03-06T07:28:52.321Z,3.54
2023-03-06T07:31:21.586Z,3.41
2023-03-06T07:33:57.679Z,3.45
2023-03-06T07:36:24.428Z,3.53
2023-03-06T07:38:52.899Z,4.02
2023-03-06T07:41:22.350Z,4.04
2023-03-06T07:43:49.424Z,3.76
2023-03-06T07:46:16.828Z,3.44
2023-03-06T07:48:45.765Z,3.67
2023-03-06T07:51:18.946Z,4.05
2023-03-06T07:53:46.188Z,4.29
2023-03-06T07:56:12.828Z,4.06
2023-03-06T07:58:40.881Z,3.77
2023-03-06T08:01:09.213Z,4.36
2023-03-06T08:03:41.257Z,4.38
2023-03-06T08:06:12.704Z,4.52
2023-03-06T08:08:40.790Z,3.85
2023-03-06T08:11:08.109Z,3.78
2023-03-06T08:13:38.517Z,4.48
2023-03-06T08:16:06.062Z,4.59
2023-03-06T08:18:33.262Z,4.00
2023-03-06T08:21:03.000Z,3.82
2023-03-06T08:23:32.406Z,4.25
2023-03-06T08:26:00.532Z,4.37
2023-03-06T08:28:28.618Z,4.31
2023-03-06T08:30:55.801Z,4.04
2023-03-06T08:33:22.975Z,3.89
2023-03-06T08:35:49.701Z,3.95
2023-03-06T08:38:16.550Z,3.64
2023-03-06T08:40:44.027Z,3.78
2023-03-06T08:43:14.311Z,4.07
2023-03-06T08:45:41.870Z,4.23
2023-03-06T08:48:09.443Z,3.99
2023-03-06T08:50:41.250Z,3.95
2023-03-06T08:53:08.451Z,3.77
2023-03-06T08:55:39.501Z,4.11
2023-03-06T08:58:06.300Z,4.40
2023-03-06T09:00:33.657Z,4.34
2023-03-06T09:03:04.043Z,3.86
2023-03-06T09:05:31.329Z,3.98
2023-03-06T09:07:58.043Z,4.03
2023-03-06T09:10:26.010Z,4.01
2023-03-06T09:12:54.991Z,3.78
2023-03-06T09:15:23.192Z,3.68
2023-03-06T09:17:51.310Z,3.87
2023-03-06T09:20:20.366Z,3.68
2023-03-06T09:22:48.200Z,3.75
2023-03-06T09:25:17.655Z,4.11
2023-03-06T09:27:44.314Z,4.15
2023-03-06T09:30:11.595Z,4.14
2023-03-06T09:32:38.447Z,3.85
2023-03-06T09:35:08.490Z,3.86
2023-03-06T09:37:35.108Z,3.59
2023-03-06T09:40:02.058Z,3.63
2023-03-06T09:42:29.139Z,3.91
2023-03-06T09:44:58.359Z,3.76
2023-03-06T09:47:41.249Z,4.10
2023-03-06T09:50:14.063Z,4.16
2023-03-06T09:52:59.955Z,3.84
2023-03-06T09:55:31.224Z,4.10
2023-03-06T09:58:20.041Z,4.33
2023-03-06T10:00:55.281Z,4.39
2023-03-06T10:03:21.945Z,4.55
2023-03-06T10:06:01.492Z,4.10
2023-03-06T10:08:36.406Z,3.96
2023-03-06T10:11:07.655Z,4.01
2023-03-06T10:13:39.695Z,3.97
2023-03-06T10:16:22.064Z,4.20
2023-03-06T10:18:49.250Z,4.30
2023-03-06T10:21:23.121Z,4.65
2023-03-06T10:24:07.774Z,4.16
2023-03-06T10:26:40.491Z,4.11
2023-03-06T10:29:15.514Z,4.46
2023-03-06T10:31:44.752Z,4.69
2023-03-06T10:34:11.874Z,4.32
2023-03-06T10:36:38.941Z,4.42
2023-03-06T10:39:14.120Z,4.85
2023-03-06T10:41:40.815Z,4.46
2023-03-06T10:44:09.030Z,4.85
2023-03-06T10:46:37.228Z,5.12
2023-03-06T10:49:06.325Z,5.25
2023-03-06T10:51:36.167Z,4.80
2023-03-06T10:54:23.089Z,4.82
2023-03-06T10:56:49.936Z,4.78
2023-03-06T10:59:17.795Z,4.63
2023-03-06T11:01:46.241Z,4.62
2023-03-06T11:04:23.407Z,4.92
2023-03-06T11:07:04.919Z,4.91
2023-03-06T11:09:33.278Z,4.72
2023-03-06T11:12:18.381Z,4.68
2023-03-06T11:14:45.096Z,5.08
2023-03-06T11:17:32.192Z,5.41
2023-03-06T11:20:18.416Z,5.47
2023-03-06T11:23:07.274Z,5.19
2023-03-06T11:25:37.339Z,5.16
2023-03-06T11:28:11.526Z,5.35
2023-03-06T11:30:42.276Z,5.37
2023-03-06T11:33:13.803Z,5.41
2023-03-06T11:35:52.052Z,5.15
2023-03-06T11:38:37.626Z,5.23
2023-03-06T11:41:08.200Z,5.44
2023-03-06T11:43:41.394Z,5.13
2023-03-06T11:46:17.689Z,5.61
2023-03-06T11:48:49.735Z,5.55
2023-03-06T11:51:25.990Z,5.72
2023-03-06T11:53:53.789Z,5.54
2023-03-06T11:56:27.027Z,5.73
2023-03-06T11:58:53.646Z,5.38
2023-03-06T12:01:26.658Z,5.47
2023-03-06T12:04:07.308Z,5.37
2023-03-06T12:06:45.895Z,5.60
2023-03-06T12:09:12.793Z,5.57
2023-03-06T12:11:41.717Z,5.59
2023-03-06T12:14:32.744Z,4.94
2023-03-06T12:16:59.496Z,5.78
2023-03-06T12:19:46.561Z,5.88
2023-03-06T12:22:25.449Z,6.04
2023-03-06T12:25:07.909Z,6.17
2023-03-06T12:27:58.279Z,6.07
2023-03-06T12:30:33.316Z,6.22
2023-03-06T12:33:03.028Z,6.03
2023-03-06T12:35:55.073Z,6.07
2023-03-06T12:38:24.791Z,6.43
2023-03-06T12:41:02.254Z,5.94
2023-03-06T12:43:47.598Z,5.98
2023-03-06T12:46:16.651Z,6.25
2023-03-06T12:48:49.173Z,6.41
2023-03-06T12:51:20.374Z,6.54
2023-03-06T12:53:47.974Z,6.54
2023-03-06T12:56:15.728Z,6.56
2023-03-06T12:58:52.988Z,6.53
2023-03-06T13:01:24.208Z,6.47
2023-03-06T13:03:54.341Z,6.38
2023-03-06T13:06:49.868Z,6.64
2023-03-06T13:09:39.611Z,6.68
2023-03-06T13:12:21.908Z,7.42
2023-03-06T13:14:54.980Z,7.08
2023-03-06T13:17:33.165Z,7.66
2023-03-06T13:20:16.683Z,8.03
2023-03-06T13:22:45.006Z,7.56
2023-03-06T13:25:12.218Z,7.92
2023-03-06T13:27:47.453Z,7.36
2023-03-06T13:30:20.591Z,7.48
2023-03-06T13:32:49.240Z,7.69
2023-03-06T13:35:34.568Z,7.22
2023-03-06T13:38:01.929Z,7.97
2023-03-06T13:40:36.183Z,8.59
2023-03-06T13:43:09.920Z,10.24
2023-03-06T13:45:41.527Z,10.25
2023-03-06T13:48:46.256Z,10.92
2023-03-06T13:51:24.176Z,11.26
2023-03-06T13:53:53.133Z,9.74
2023-03-06T13:56:22.918Z,10.45
2023-03-06T13:59:09.408Z,10.52
2023-03-06T14:01:44.424Z,10.91
2023-03-06T14:04:27.441Z,10.00
2023-03-06T14:07:04.903Z,10.63
2023-03-06T14:09:43.171Z,10.14
2023-03-06T14:12:33.247Z,10.73
2023-03-06T14:15:04.586Z,11.36
2023-03-06T14:17:37.757Z,11.30
2023-03-06T14:20:15.605Z,10.59
2023-03-06T14:22:42.372Z,10.92
2023-03-06T14:25:15.079Z,10.75
2023-03-06T14:27:48.169Z,11.00
2023-03-06T14:30:16.971Z,11.20
2023-03-06T14:32:43.936Z,10.74
2023-03-06T14:35:27.839Z,9.67
2023-03-06T14:37:56.911Z,10.45
2023-03-06T14:40:32.192Z,11.39
2023-03-06T14:43:17.146Z,11.06
2023-03-06T14:45:49.712Z,11.95
2023-03-06T14:48:16.467Z,11.12
2023-03-06T14:50:47.298Z,11.28
2023-03-06T14:53:16.457Z,10.41
2023-03-06T14:56:02.731Z,8.36
2023-03-06T14:58:36.024Z,8.59
2023-03-06T15:01:05.292Z,8.11
2023-03-06T15:03:42.629Z,8.02
2023-03-06T15:06:20.505Z,7.53
2023-03-06T15:08:48.739Z,7.72
2023-03-06T15:11:15.403Z,7.76
2023-03-06T15:13:42.533Z,7.54
2023-03-06T15:16:24.913Z,7.51
2023-03-06T15:18:54.599Z,7.29
2023-03-06T15:21:21.930Z,7.23
2023-03-06T15:23:50.022Z,7.47
2023-03-06T15:26:28.030Z,6.72
2023-03-06T15:29:08.153Z,7.12
2023-03-06T15:31:36.744Z,7.02
2023-03-06T15:34:06.578Z,7.35
2023-03-06T15:36:37.324Z,7.14
2023-03-06T15:39:26.453Z,7.19
2023-03-06T15:41:59.452Z,7.17
2023-03-06T15:44:26.409Z,6.91
2023-03-06T15:47:06.637Z,7.08
2023-03-06T15:49:36.496Z,6.25
2023-03-06T15:52:03.114Z,6.01
2023-03-06T15:54:31.925Z,6.29
2023-03-06T15:56:59.458Z,6.36
2023-03-06T15:59:27.972Z,6.62
2023-03-06T16:01:54.677Z,6.41
2023-03-06T16:04:21.445Z,6.42
2023-03-06T16:06:48.186Z,6.25
2023-03-06T16:09:17.191Z,6.46
2023-03-06T16:11:44.944Z,6.52
2023-03-06T16:14:21.537Z,6.52
2023-03-06T16:16:51.117Z,6.53
2023-03-06T16:19:28.219Z,6.39
2023-03-06T16:21:58.131Z,6.53
2023-03-06T16:24:26.318Z,6.47
2023-03-06T16:26:53.801Z,6.25
2023-03-06T16:29:22.160Z,6.26
2023-03-06T16:31:48.958Z,6.19
2023-03-06T16:34:15.946Z,6.27
2023-03-06T16:36:42.652Z,5.39
2023-03-06T16:39:13.247Z,5.83
2023-03-06T16:41:39.884Z,5.81
2023-03-06T16:44:10.237Z,5.79
2023-03-06T16:46:41.564Z,5.65
2023-03-06T16:49:12.729Z,5.40
2023-03-06T16:51:40.483Z,5.49
2023-03-06T16:54:07.113Z,5.56
2023-03-06T16:56:36.838Z,5.47
2023-03-06T16:59:03.594Z,5.33
2023-03-06T17:01:30.340Z,5.43
2023-03-06T17:03:57.075Z,5.11
2023-03-06T17:06:25.930Z,5.26
2023-03-06T17:08:52.680Z,5.13
2023-03-06T17:11:22.258Z,4.87
2023-03-06T17:13:49.279Z,4.85
2023-03-06T17:16:16.622Z,5.02
2023-03-06T17:18:44.433Z,5.08
2023-03-06T17:21:11.282Z,4.76
2023-03-06T17:23:38.234Z,4.15
2023-03-06T17:26:09.724Z,4.38
2023-03-06T17:28:36.903Z,4.51
2023-03-06T17:31:05.326Z,4.26
2023-03-06T17:33:32.083Z,3.89
2023-03-06T17:35:59.572Z,3.73
2023-03-06T17:38:26.920Z,3.72
2023-03-06T17:40:53.769Z,3.85
2023-03-06T17:43:20.583Z,3.77
2023-03-06T17:45:47.526Z,3.74
2023-03-06T17:48:17.317Z,3.60
2023-03-06T17:50:45.873Z,3.55
2023-03-06T17:53:14.469Z,3.44
2023-03-06T17:55:41.489Z,3.45
2023-03-06T17:58:09.127Z,3.66
2023-03-06T18:00:37.557Z,3.56
2023-03-06T18:03:04.246Z,3.28
2023-03-06T18:05:30.885Z,3.28
2023-03-06T18:07:57.627Z,3.35
2023-03-06T18:10:24.818Z,3.39
2023-03-06T18:12:51.469Z,3.54
2023-03-06T18:15:18.651Z,3.55
2023-03-06T18:17:45.693Z,3.20
2023-03-06T18:20:12.521Z,3.44
2023-03-06T18:22:39.173Z,3.22
2023-03-06T18:25:09.330Z,3.38
2023-03-06T18:27:35.995Z,3.47
2023-03-06T18:30:09.576Z,3.33
2023-03-06T18:32:36.327Z,3.56
2023-03-06T18:35:02.951Z,3.67
2023-03-06T18:37:30.239Z,3.76
2023-03-06T18:39:56.979Z,3.36
2023-03-06T18:42:24.694Z,3.18
2023-03-06T18:44:51.312Z,3.28
2023-03-06T18:47:18.013Z,3.42
2023-03-06T18:49:46.348Z,3.27
2023-03-06T18:52:13.050Z,3.03
2023-03-06T18:54:39.753Z,3.04
2023-03-06T18:57:06.463Z,2.89
2023-03-06T18:59:33.317Z,3.27
2023-03-06T19:02:00.157Z,3.19
2023-03-06T19:04:27.182Z,2.96
2023-03-06T19:06:54.833Z,2.80
2023-03-06T19:09:21.548Z,2.71
2023-03-06T19:11:52.578Z,2.82
2023-03-06T19:14:21.543Z,2.74
2023-03-06T19:16:51.464Z,2.81
2023-03-06T19:19:18.189Z,2.45
2023-03-06T19:21:44.854Z,2.41
2023-03-06T19:24:14.484Z,2.43
2023-03-06T19:26:43.942Z,2.64
2023-03-06T19:29:10.602Z,2.72
2023-03-06T19:31:37.258Z,2.58
2023-03-06T19:34:04.167Z,2.68
2023-03-06T19:36:33.928Z,2.74
2023-03-06T19:39:04.697Z,2.78
2023-03-06T19:41:33.540Z,2.88
2023-03-06T19:44:02.482Z,2.78
2023-03-06T19:46:29.563Z,2.68
2023-03-06T19:49:00.486Z,2.74
2023-03-06T19:51:27.256Z,2.76
2023-03-06T19:53:53.865Z,2.48
2023-03-06T19:56:26.173Z,2.77
2023-03-06T19:58:53.056Z,2.39
2023-03-06T20:01:23.117Z,2.36
2023-03-06T20:03:50.712Z,2.47
2023-03-06T20:06:18.672Z,2.39
2023-03-06T20:08:45.813Z,2.53
2023-03-06T20:11:16.730Z,2.71
2023-03-06T20:13:47.411Z,2.32
2023-03-06T20:16:14.609Z,2.15
2023-03-06T20:18:41.226Z,2.32
2023-03-06T20:21:08.017Z,2.13
2023-03-06T20:23:34.637Z,2.25
2023-03-06T20:26:04.136Z,2.11
2023-03-06T20:28:30.752Z,2.00
2023-03-06T20:30:57.638Z,2.10
2023-03-06T20:33:26.545Z,1.78
2023-03-06T20:36:01.785Z,1.71
2023-03-06T20:38:28.575Z,1.90
2023-03-06T20:40:56.191Z,1.71
2023-03-06T20:43:23.762Z,1.55
2023-03-06T20:46:02.975Z,1.74
2023-03-06T20:48:30.052Z,1.65
2023-03-06T20:51:04.565Z,1.72
2023-03-06T20:53:35.243Z,1.39
2023-03-06T20:56:01.924Z,1.56
2023-03-06T20:58:31.735Z,1.79
2023-03-06T21:01:00.290Z,1.65
2023-03-06T21:03:29.494Z,1.66
2023-03-06T21:05:56.940Z,1.45
2023-03-06T21:08:24.145Z,1.65
2023-03-06T21:10:51.365Z,1.64
2023-03-06T21:13:19.107Z,1.62
2023-03-06T21:15:47.634Z,1.61
2023-03-06T21:18:14.738Z,1.62
2023-03-06T21:20:41.727Z,1.72
2023-03-06T21:23:09.226Z,1.89
2023-03-06T21:25:35.886Z,1.90
2023-03-06T21:28:02.593Z,1.66
2023-03-06T21:30:32.302Z,1.62
2023-03-06T21:32:58.877Z,1.83
2023-03-06T21:35:25.614Z,1.63
2023-03-06T21:37:52.293Z,1.55
2023-03-06T21:40:19.154Z,1.98
2023-03-06T21:42:45.845Z,1.78
2023-03-06T21:45:12.763Z,1.71
2023-03-06T21:47:41.008Z,1.73
2023-03-06T21:50:08.956Z,1.90
2023-03-06T21:52:35.715Z,2.23
2023-03-06T21:55:02.340Z,1.87
2023-03-06T21:57:29.109Z,2.35
2023-03-06T21:59:55.753Z,2.09
2023-03-06T22:02:22.421Z,2.14
2023-03-06T22:04:50.214Z,2.28
2023-03-06T22:07:16.924Z,2.33
2023-03-06T22:09:43.501Z,2.26
2023-03-06T22:12:10.064Z,2.23
2023-03-06T22:14:39.003Z,2.18
2023-03-06T22:17:05.569Z,2.22
2023-03-06T22:19:32.247Z,2.15
2023-03-06T22:21:58.846Z,2.07
2023-03-06T22:24:25.462Z,1.77
2023-03-06T22:26:52.030Z,1.82
2023-03-06T22:29:18.703Z,1.85
2023-03-06T22:31:45.427Z,2.00
2023-03-06T22:34:12.131Z,2.10
2023-03-06T22:36:38.820Z,2.13
2023-03-06T22:39:05.402Z,2.09
2023-03-06T22:41:32.225Z,2.13
2023-03-06T22:44:00.133Z,1.92
2023-03-06T22:46:26.896Z,2.22
2023-03-06T22:48:55.780Z,2.24
2023-03-06T22:51:22.452Z,2.35
2023-03-06T22:53:49.397Z,2.29
2023-03-06T22:56:17.390Z,2.14
2023-03-06T22:58:45.007Z,2.22
2023-03-06T23:01:22.550Z,2.36
2023-03-06T23:03:50.253Z,2.01
2023-03-06T23:06:18.429Z,1.98
2023-03-06T23:08:48.548Z,1.85
2023-03-06T23:11:17.395Z,2.20
2023-03-06T23:14:03.411Z,2.33
2023-03-06T23:16:48.622Z,2.08
2023-03-06T23:19:33.654Z,2.36
2023-03-06T23:22:18.719Z,2.22
2023-03-06T23:25:04.317Z,2.08
2023-03-06T23:27:31.415Z,2.25
2023-03-06T23:29:59.093Z,2.42
2023-03-06T23:32:26.077Z,2.44
2023-03-06T23:34:52.771Z,2.49
2023-03-06T23:37:19.477Z,2.60
2023-03-06T23:39:46.619Z,2.64
2023-03-06T23:42:13.279Z,2.52
2023-03-06T23:44:39.874Z,2.74
2023-03-06T23:47:06.707Z,2.60
2023-03-06T23:49:33.378Z,2.58
2023-03-06T23:52:00.366Z,2.89
2023-03-06T23:54:26.979Z,2.86
2023-03-06T23:56:53.641Z,3.01
2023-03-06T23:59:20.684Z,2.97
